Time;durP1;ratioP1;P1;durP2;ratioP2;P2;SDS_P1;SDS_P2;PMS_P1;PMS_P2;Temp;Humidity;BMP_temperature;BMP_pressure;BME280_temperature;BME280_humidity;BME280_pressure;Samples;Min_cycle;Max_cycle;Signal;HPM_P1;HPM_P2
2022/10/07 00:01:13;;;;;;;11.45;1.88;;;11.90;99.90;;;;;;5118789;27;20299;-78
2022/10/07 00:03:39;;;;;;;11.38;2.00;;;12.10;99.90;;;;;;5136590;27;20087;-79
2022/10/07 00:06:09;;;;;;;10.35;1.70;;;12.00;99.90;;;;;;5118717;27;20105;-79
2022/10/07 00:08:36;;;;;;;10.45;2.15;;;11.80;99.90;;;;;;5101211;27;20042;-79
2022/10/07 00:11:04;;;;;;;14.95;2.83;;;12.10;99.90;;;;;;5106513;27;20046;-79
2022/10/07 00:13:31;;;;;;;9.20;1.55;;;10.30;99.90;;;;;;5107850;27;20126;-78
2022/10/07 00:16:03;;;;;;;10.00;1.67;;;10.10;99.90;;;;;;5107218;27;20174;-78
2022/10/07 00:18:28;;;;;;;9.68;1.85;;;10.30;99.90;;;;;;5121935;27;20159;-80
2022/10/07 00:20:54;;;;;;;13.23;2.30;;;10.20;99.90;;;;;;5115194;27;20165;-78
2022/10/07 00:23:20;;;;;;;9.68;1.58;;;12.10;99.90;;;;;;5129359;27;20035;-79
2022/10/07 00:25:45;;;;;;;8.52;1.90;;;11.80;99.90;;;;;;5099800;27;20486;-80
2022/10/07 00:28:11;;;;;;;9.43;1.90;;;11.60;99.90;;;;;;5136646;27;20038;-80
2022/10/07 00:30:36;;;;;;;10.57;1.98;;;10.20;99.90;;;;;;5134204;27;20472;-79
2022/10/07 00:33:02;;;;;;;10.18;1.77;;;10.20;99.90;;;;;;5104504;27;20046;-80
2022/10/07 00:35:29;;;;;;;9.30;1.92;;;11.70;99.90;;;;;;5141431;27;20047;-79
2022/10/07 00:37:54;;;;;;;12.95;2.17;;;10.20;99.90;;;;;;5118553;27;20038;-78
2022/10/07 00:40:20;;;;;;;12.45;2.10;;;11.20;99.90;;;;;;5119270;27;20050;-79
2022/10/07 00:42:45;;;;;;;8.52;1.83;;;11.40;99.90;;;;;;5120325;27;20035;-80
2022/10/07 00:45:18;;;;;;;11.43;2.47;;;11.80;99.90;;;;;;5118932;27;20043;-78
2022/10/07 00:47:47;;;;;;;9.75;2.08;;;10.10;99.90;;;;;;5130268;27;20507;-78
2022/10/07 00:50:39;;;;;;;12.70;2.55;;;10.10;99.90;;;;;;5117858;27;20405;-77
2022/10/07 00:53:04;;;;;;;11.93;1.83;;;10.10;99.90;;;;;;5112727;27;20046;-78
2022/10/07 00:55:31;;;;;;;14.02;2.05;;;10.10;99.90;;;;;;5116400;27;20043;-78
2022/10/07 00:58:08;;;;;;;10.27;1.70;;;10.10;99.90;;;;;;5133152;27;20469;-78
2022/10/07 01:00:38;;;;;;;7.80;2.22;;;10.00;99.90;;;;;;5121959;27;21419;-78
2022/10/07 01:03:03;;;;;;;8.75;1.73;;;10.10;99.90;;;;;;5135727;27;20043;-78
2022/10/07 01:05:29;;;;;;;11.57;2.72;;;10.10;99.90;;;;;;5123743;27;20038;-78
2022/10/07 01:07:56;;;;;;;11.15;2.13;;;10.10;99.90;;;;;;5099074;27;20035;-78
2022/10/07 01:10:24;;;;;;;11.55;2.40;;;11.90;99.90;;;;;;5117751;27;20069;-79
2022/10/07 01:13:05;;;;;;;11.23;1.95;;;10.70;99.90;;;;;;5104936;27;20035;-78
2022/10/07 01:15:41;;;;;;;8.25;1.83;;;10.00;99.90;;;;;;5119098;27;20046;-79
2022/10/07 01:18:31;;;;;;;9.68;2.08;;;10.00;99.90;;;;;;5098014;27;20043;-78
2022/10/07 01:21:08;;;;;;;8.10;1.73;;;10.00;99.90;;;;;;5097227;27;20038;-78
2022/10/07 01:24:00;;;;;;;14.55;2.35;;;9.60;99.90;;;;;;5135031;27;20039;-79
2022/10/07 01:26:52;;;;;;;11.85;2.38;;;10.00;99.90;;;;;;5048906;28;20444;-77
2022/10/07 01:29:28;;;;;;;9.23;2.17;;;10.00;99.90;;;;;;5086039;28;20086;-78
2022/10/07 01:32:02;;;;;;;10.07;1.98;;;10.00;99.90;;;;;;5077789;28;20174;-79
2022/10/07 01:34:28;;;;;;;13.77;2.38;;;11.30;99.90;;;;;;5100968;27;20087;-78
2022/10/07 01:36:56;;;;;;;13.45;2.08;;;10.00;99.90;;;;;;5082322;28;20122;-78
2022/10/07 01:39:28;;;;;;;8.10;2.47;;;9.80;99.90;;;;;;5076250;28;20044;-78
2022/10/07 01:41:53;;;;;;;9.43;2.00;;;11.80;99.90;;;;;;5095410;28;20051;-79
2022/10/07 01:44:20;;;;;;;13.18;2.30;;;10.00;99.90;;;;;;5102155;27;20035;-78
2022/10/07 01:46:46;;;;;;;14.60;2.60;;;9.90;99.90;;;;;;5074958;28;20515;-78
2022/10/07 01:49:12;;;;;;;11.88;2.22;;;9.90;99.90;;;;;;5084243;28;20039;-78
2022/10/07 01:51:40;;;;;;;9.88;1.70;;;11.70;99.90;;;;;;5094483;28;20042;-79
2022/10/07 01:54:34;;;;;;;13.40;2.58;;;10.00;99.90;;;;;;5102031;28;20040;-79
2022/10/07 01:57:24;;;;;;;13.23;2.63;;;10.00;99.90;;;;;;5117343;28;20031;-78
2022/10/07 01:59:50;;;;;;;18.38;3.28;;;10.00;99.90;;;;;;5096745;28;20049;-79
2022/10/07 02:02:33;;;;;;;8.45;2.13;;;11.30;99.90;;;;;;5079317;28;20439;-79
2022/10/07 02:05:23;;;;;;;15.55;2.95;;;10.00;99.90;;;;;;5079666;28;20055;-79
2022/10/07 02:08:18;;;;;;;13.40;2.88;;;9.90;99.90;;;;;;5090059;28;20096;-78
2022/10/07 02:11:00;;;;;;;10.20;2.53;;;9.90;99.90;;;;;;5087270;28;20097;-79
2022/10/07 02:13:50;;;;;;;17.58;3.13;;;9.90;99.90;;;;;;5105454;28;20036;-77
2022/10/07 02:16:39;;;;;;;16.35;2.55;;;10.80;99.90;;;;;;5081694;28;20044;-79
2022/10/07 02:19:15;;;;;;;12.07;2.10;;;9.90;99.90;;;;;;5098535;28;20523;-78
2022/10/07 02:21:45;;;;;;;11.52;2.03;;;11.20;99.90;;;;;;5099533;28;20042;-80
2022/10/07 02:24:12;;;;;;;15.18;3.65;;;11.30;99.90;;;;;;5103000;27;20043;-79
2022/10/07 02:26:40;;;;;;;9.35;2.15;;;9.80;99.90;;;;;;5119998;27;20073;-80
2022/10/07 02:29:09;;;;;;;7.05;2.05;;;9.80;99.90;;;;;;5117453;27;20034;-79
2022/10/07 02:31:36;;;;;;;11.25;2.80;;;9.80;99.90;;;;;;5120692;27;20053;-79
2022/10/07 02:34:05;;;;;;;12.80;2.65;;;9.80;99.90;;;;;;5095335;27;20043;-79
2022/10/07 02:36:38;;;;;;;11.23;2.25;;;11.00;99.90;;;;;;5121940;27;20100;-78
2022/10/07 02:39:05;;;;;;;13.05;2.60;;;11.60;99.90;;;;;;5138929;27;20046;-79
2022/10/07 02:41:57;;;;;;;14.55;2.55;;;10.00;99.90;;;;;;5120212;27;20035;-79
2022/10/07 02:44:31;;;;;;;11.00;2.55;;;9.70;99.90;;;;;;5121607;27;20039;-79
2022/10/07 02:47:05;;;;;;;10.23;2.55;;;9.70;99.90;;;;;;5138110;27;20043;-79
2022/10/07 02:49:37;;;;;;;10.77;2.50;;;9.70;99.90;;;;;;5103676;27;20465;-79
2022/10/07 02:52:13;;;;;;;11.68;2.35;;;9.70;99.90;;;;;;5117911;27;20122;-78
2022/10/07 02:54:58;;;;;;;8.70;2.25;;;11.30;99.90;;;;;;5138715;27;20121;-78
2022/10/07 02:57:26;;;;;;;8.15;2.78;;;9.70;99.90;;;;;;5119634;27;20039;-78
2022/10/07 02:59:53;;;;;;;11.07;2.30;;;11.30;99.90;;;;;;5127498;27;20054;-79
2022/10/07 03:02:45;;;;;;;13.80;2.53;;;10.10;99.90;;;;;;5118343;27;20107;-78
2022/10/07 03:05:13;;;;;;;13.10;2.85;;;9.70;99.90;;;;;;5087316;27;20070;-78
2022/10/07 03:07:40;;;;;;;9.52;2.08;;;9.60;99.90;;;;;;5137552;27;20072;-78
2022/10/07 03:10:08;;;;;;;11.60;2.55;;;10.90;99.90;;;;;;5099428;27;21341;-79
2022/10/07 03:12:33;;;;;;;7.53;2.25;;;9.70;99.90;;;;;;5136882;27;20158;-79
2022/10/07 03:14:59;;;;;;;16.50;2.15;;;11.80;99.90;;;;;;5102797;27;20134;-78
2022/10/07 03:17:24;;;;;;;7.60;2.00;;;9.70;99.90;;;;;;5115342;27;20141;-80
2022/10/07 03:19:50;;;;;;;12.13;2.65;;;9.60;99.90;;;;;;5117764;27;20031;-79
2022/10/07 03:22:16;;;;;;;13.82;2.38;;;11.30;99.90;;;;;;5095181;27;22155;-80
2022/10/07 03:24:41;;;;;;;12.15;2.53;;;9.60;99.90;;;;;;5132362;27;20099;-81
2022/10/07 03:27:08;;;;;;;13.27;2.65;;;9.60;99.90;;;;;;5099254;27;20046;-79
2022/10/07 03:29:36;;;;;;;13.75;2.15;;;9.20;99.90;;;;;;5136593;27;20043;-80
2022/10/07 03:32:02;;;;;;;19.00;2.90;;;9.50;99.90;;;;;;5117761;27;20053;-79
2022/10/07 03:34:29;;;;;;;12.82;2.92;;;9.50;99.90;;;;;;5117483;27;20401;-79
2022/10/07 03:36:55;;;;;;;9.32;2.30;;;9.60;99.90;;;;;;5138611;27;20042;-79
2022/10/07 03:39:20;;;;;;;6.40;1.98;;;9.50;99.90;;;;;;5119751;27;20047;-79
2022/10/07 03:41:50;;;;;;;9.20;2.40;;;11.00;99.90;;;;;;5119668;27;20099;-79
2022/10/07 03:44:18;;;;;;;12.50;2.80;;;9.40;99.90;;;;;;5101414;27;20039;-79
2022/10/07 03:46:50;;;;;;;17.08;2.72;;;9.40;99.90;;;;;;5102479;27;20083;-78
2022/10/07 03:49:16;;;;;;;20.00;2.67;;;11.10;99.90;;;;;;5119672;27;20119;-77
2022/10/07 03:51:42;;;;;;;13.85;3.13;;;11.20;99.90;;;;;;5098430;27;20385;-78
2022/10/07 03:54:08;;;;;;;8.38;2.30;;;9.40;99.90;;;;;;5099316;27;20315;-78
2022/10/07 03:56:33;;;;;;;15.45;3.78;;;9.30;99.90;;;;;;5123414;27;20031;-78
2022/10/07 03:58:59;;;;;;;7.80;2.10;;;9.30;99.90;;;;;;5123403;27;20504;-80
2022/10/07 04:01:25;;;;;;;17.35;2.88;;;9.70;99.90;;;;;;5119411;27;20386;-79
2022/10/07 04:03:52;;;;;;;11.70;2.92;;;9.60;99.90;;;;;;5133437;27;20031;-79
2022/10/07 04:06:17;;;;;;;9.80;2.42;;;9.20;99.90;;;;;;5118493;27;20077;-80
2022/10/07 04:08:43;;;;;;;10.95;2.70;;;9.90;99.90;;;;;;5098102;27;20111;-78
2022/10/07 04:11:09;;;;;;;13.40;3.28;;;10.50;99.90;;;;;;5135853;27;20042;-79
2022/10/07 04:13:35;;;;;;;17.35;3.10;;;9.20;99.90;;;;;;5105006;27;20043;-77
2022/10/07 04:16:07;;;;;;;12.63;3.03;;;9.10;99.90;;;;;;5098328;27;20050;-78
2022/10/07 04:18:33;;;;;;;17.70;3.42;;;9.20;99.90;;;;;;5135777;27;20399;-78
2022/10/07 04:20:59;;;;;;;11.43;2.63;;;9.20;99.90;;;;;;5134391;27;20051;-78
2022/10/07 04:23:25;;;;;;;14.00;2.63;;;9.60;99.90;;;;;;5105424;27;20500;-79
2022/10/07 04:25:51;;;;;;;14.30;2.90;;;9.20;99.90;;;;;;5114450;27;20043;-79
2022/10/07 04:28:20;;;;;;;9.60;2.70;;;9.20;99.90;;;;;;5093193;28;20406;-78
2022/10/07 04:30:50;;;;;;;11.48;2.92;;;10.90;99.90;;;;;;5098009;27;20506;-77
2022/10/07 04:33:20;;;;;;;13.35;3.75;;;9.30;99.90;;;;;;5111857;27;20047;-79
2022/10/07 04:35:47;;;;;;;15.32;2.92;;;9.10;99.90;;;;;;5112266;27;20046;-79
2022/10/07 04:38:17;;;;;;;16.85;3.50;;;9.10;99.90;;;;;;5091914;27;20042;-80
2022/10/07 04:40:45;;;;;;;14.07;3.25;;;9.20;99.90;;;;;;5089539;27;20381;-79
2022/10/07 04:43:19;;;;;;;15.27;3.00;;;10.90;99.90;;;;;;5111442;27;20043;-79
2022/10/07 04:45:45;;;;;;;;;;;9.20;99.90;;;;;;5111647;27;20051;-79
2022/10/07 04:48:12;;;;;;;16.23;3.00;;;9.10;99.90;;;;;;5088269;27;19942;-79
2022/10/07 04:50:38;;;;;;;23.67;3.67;;;9.20;99.90;;;;;;5112022;27;20042;-79
2022/10/07 04:53:06;;;;;;;19.48;3.90;;;9.20;99.90;;;;;;5129738;27;20103;-78
2022/10/07 04:55:37;;;;;;;13.07;3.47;;;11.10;99.90;;;;;;5110935;27;20047;-78
2022/10/07 04:58:03;;;;;;;12.18;2.90;;;9.20;99.90;;;;;;5111813;27;20043;-78
2022/10/07 05:00:29;;;;;;;15.90;3.88;;;11.10;99.90;;;;;;5101649;27;20444;-78
2022/10/07 05:02:55;;;;;;;16.65;3.15;;;9.30;99.90;;;;;;5107277;27;20035;-80
2022/10/07 05:05:24;;;;;;;13.48;3.30;;;11.20;99.90;;;;;;5094206;27;20040;-79
2022/10/07 05:07:51;;;;;;;17.55;3.50;;;9.20;99.90;;;;;;5110918;27;20198;-80
2022/10/07 05:10:17;;;;;;;11.95;2.70;;;9.20;99.90;;;;;;5124111;27;20235;-78
2022/10/07 05:12:44;;;;;;;14.57;3.40;;;9.10;99.90;;;;;;5093494;27;20043;-78
2022/10/07 05:15:10;;;;;;;20.52;3.58;;;9.20;99.90;;;;;;5090383;27;20043;-78
2022/10/07 05:17:36;;;;;;;18.30;3.60;;;8.90;99.90;;;;;;5094170;27;20031;-79
2022/10/07 05:20:03;;;;;;;17.05;3.83;;;11.20;99.90;;;;;;5110181;27;20054;-78
2022/10/07 05:22:30;;;;;;;17.27;3.58;;;9.30;99.90;;;;;;5113894;27;20050;-78
2022/10/07 05:24:58;;;;;;;16.67;4.05;;;9.30;99.90;;;;;;5122024;27;20059;-79
2022/10/07 05:27:24;;;;;;;14.18;3.78;;;8.00;99.90;;;;;;5115918;27;20053;-78
2022/10/07 05:29:49;;;;;;;20.25;4.25;;;9.30;99.90;;;;;;5119830;27;20391;-78
2022/10/07 05:32:15;;;;;;;14.20;3.28;;;10.80;99.90;;;;;;5106314;27;20039;-78
2022/10/07 05:34:43;;;;;;;13.70;3.78;;;9.30;99.90;;;;;;5125018;27;20047;-78
2022/10/07 05:37:10;;;;;;;16.65;4.63;;;10.60;99.90;;;;;;5118379;27;20050;-78
2022/10/07 05:39:36;;;;;;;18.92;4.57;;;9.30;99.90;;;;;;5101381;27;20038;-79
2022/10/07 05:42:01;;;;;;;20.63;3.95;;;9.40;99.90;;;;;;5104294;27;20049;-80
2022/10/07 05:44:30;;;;;;;15.82;3.67;;;11.20;99.90;;;;;;5140422;27;20051;-79
2022/10/07 05:46:55;;;;;;;16.70;4.10;;;9.30;99.90;;;;;;5137861;27;20039;-80
2022/10/07 05:49:23;;;;;;;21.48;4.78;;;9.40;99.90;;;;;;5104628;27;20128;-80
2022/10/07 05:51:50;;;;;;;17.23;4.32;;;9.40;99.90;;;;;;5116522;27;20031;-80
2022/10/07 05:54:17;;;;;;;13.77;3.50;;;10.40;99.90;;;;;;5146762;27;20431;-80
2022/10/07 05:56:42;;;;;;;17.17;4.57;;;9.50;99.90;;;;;;5107316;27;20478;-80
2022/10/07 05:59:09;;;;;;;17.25;4.00;;;9.40;99.90;;;;;;5126200;27;20058;-80
2022/10/07 06:01:35;;;;;;;22.58;5.38;;;9.40;99.90;;;;;;5107931;27;20125;-80
2022/10/07 06:04:01;;;;;;;17.63;3.33;;;9.40;99.90;;;;;;5108514;27;20092;-80
2022/10/07 06:06:28;;;;;;;19.88;4.85;;;9.40;99.90;;;;;;5125405;27;20046;-80
2022/10/07 06:13:06;;;;;;;19.85;4.60;;;9.40;99.90;;;;;;5121367;27;20125;-79
2022/10/07 06:14:24;;;;;;;21.42;4.60;;;9.60;99.90;;;;;;5135121;27;20049;-80
2022/10/07 06:16:58;;;;;;;18.73;4.13;;;9.50;99.90;;;;;;5136929;27;20035;-79
2022/10/07 06:19:24;;;;;;;14.38;4.93;;;9.50;99.90;;;;;;5092605;27;20089;-79
2022/10/07 06:21:50;;;;;;;16.83;4.75;;;9.50;99.90;;;;;;5101499;27;20074;-79
2022/10/07 06:24:16;;;;;;;20.60;4.53;;;8.90;99.90;;;;;;5143762;27;20035;-79
2022/10/07 06:26:42;;;;;;;23.45;4.82;;;11.20;99.90;;;;;;5117559;27;20471;-77
2022/10/07 06:29:12;;;;;;;21.15;4.53;;;9.60;99.90;;;;;;5118737;27;20031;-77
2022/10/07 06:31:40;;;;;;;19.25;4.22;;;9.50;99.90;;;;;;5143035;27;20075;-78
2022/10/07 06:34:06;;;;;;;18.60;4.57;;;11.40;99.90;;;;;;4414318;28;10000723;-78
2022/10/07 06:36:33;;;;;;;13.32;3.97;;;9.80;99.90;;;;;;5098848;27;20171;-79
2022/10/07 06:38:58;;;;;;;20.63;4.70;;;9.60;99.90;;;;;;5141674;27;20047;-79
2022/10/07 06:41:24;;;;;;;23.73;4.10;;;9.90;99.90;;;;;;5098985;27;20057;-78
2022/10/07 06:43:55;;;;;;;19.15;4.15;;;11.30;99.90;;;;;;5143199;27;20129;-78
2022/10/07 06:46:20;;;;;;;14.70;4.32;;;9.70;99.90;;;;;;5134247;27;20047;-79
2022/10/07 06:48:46;;;;;;;21.40;4.32;;;9.80;99.90;;;;;;5124469;27;20031;-80
2022/10/07 06:51:20;;;;;;;15.20;3.67;;;10.10;99.90;;;;;;5119543;27;20408;-80
2022/10/07 06:53:50;;;;;;;23.00;6.03;;;9.80;99.90;;;;;;5121567;27;20095;-80
2022/10/07 06:56:16;;;;;;;23.20;4.60;;;9.80;99.90;;;;;;5118657;27;20069;-79
2022/10/07 06:58:42;;;;;;;16.02;4.30;;;10.80;99.90;;;;;;5144812;27;20079;-80
2022/10/07 07:01:08;;;;;;;19.33;4.32;;;9.90;99.90;;;;;;5148572;27;20077;-79
2022/10/07 07:03:34;;;;;;;19.13;4.53;;;10.00;99.90;;;;;;5123903;27;20050;-79
2022/10/07 07:06:00;;;;;;;14.43;4.32;;;10.00;99.90;;;;;;5107308;27;20039;-79
2022/10/07 07:08:29;;;;;;;23.98;5.32;;;10.00;99.90;;;;;;5126282;27;20055;-79
2022/10/07 07:11:00;;;;;;;18.88;4.57;;;10.10;99.90;;;;;;5109720;27;20072;-79
2022/10/07 07:13:26;;;;;;;19.35;4.28;;;11.70;99.90;;;;;;5106151;27;20038;-78
2022/10/07 07:15:58;;;;;;;15.60;4.22;;;10.10;99.90;;;;;;5106101;27;20289;-78
2022/10/07 07:18:25;;;;;;;10.52;4.43;;;10.40;99.90;;;;;;5136867;27;20066;-78
2022/10/07 07:20:50;;;;;;;23.40;4.35;;;10.20;99.90;;;;;;5107255;27;20489;-78
2022/10/07 07:23:16;;;;;;;15.43;3.70;;;10.20;99.90;;;;;;5111886;27;20087;-78
2022/10/07 07:25:45;;;;;;;17.25;4.00;;;10.70;99.90;;;;;;5141970;27;20054;-78
2022/10/07 07:28:12;;;;;;;20.00;5.07;;;10.30;99.90;;;;;;5145029;27;20041;-79
2022/10/07 07:30:38;;;;;;;25.30;6.20;;;10.30;99.90;;;;;;5130347;27;20074;-79
2022/10/07 07:33:04;;;;;;;18.33;6.03;;;10.40;99.90;;;;;;5127522;27;20049;-79
2022/10/07 07:35:31;;;;;;;17.63;4.50;;;11.80;99.90;;;;;;5148978;27;20470;-80
2022/10/07 07:37:58;;;;;;;18.73;4.60;;;10.40;99.90;;;;;;5125754;27;20113;-80
2022/10/07 07:40:25;;;;;;;18.77;4.60;;;10.50;99.90;;;;;;5144138;27;20038;-79
2022/10/07 07:42:53;;;;;;;17.80;3.97;;;10.60;99.90;;;;;;5125344;27;20099;-79
2022/10/07 07:45:19;;;;;;;21.38;4.50;;;10.60;99.90;;;;;;5107957;27;20042;-78
2022/10/07 07:47:48;;;;;;;17.10;4.20;;;11.70;99.90;;;;;;5103109;27;20053;-79
2022/10/07 07:50:15;;;;;;;19.85;4.45;;;10.70;99.90;;;;;;5106107;27;20038;-79
2022/10/07 07:52:40;;;;;;;13.45;3.97;;;10.70;99.90;;;;;;5130448;27;20035;-79
2022/10/07 07:55:06;;;;;;;17.45;3.65;;;10.80;99.90;;;;;;5151591;27;20122;-79
2022/10/07 07:57:33;;;;;;;18.60;3.85;;;10.90;99.90;;;;;;5125705;27;20035;-79
2022/10/07 07:59:59;;;;;;;20.20;4.25;;;10.90;99.90;;;;;;5106699;27;20043;-81
2022/10/07 08:02:25;;;;;;;15.40;4.25;;;11.00;99.90;;;;;;5150236;27;20591;-77
2022/10/07 08:04:50;;;;;;;21.75;4.60;;;10.70;99.90;;;;;;5120726;27;20500;-78
2022/10/07 08:07:16;;;;;;;18.73;3.85;;;11.00;99.90;;;;;;5128322;27;20038;-77
2022/10/07 08:09:42;;;;;;;15.95;4.03;;;11.10;99.90;;;;;;5101090;27;20045;-77
2022/10/07 08:12:10;;;;;;;18.65;4.35;;;12.10;99.90;;;;;;5131300;27;20071;-78
2022/10/07 08:14:37;;;;;;;21.50;5.82;;;11.20;99.90;;;;;;5148095;27;20031;-79
2022/10/07 08:17:03;;;;;;;20.73;4.45;;;12.60;99.90;;;;;;5122714;27;20039;-79
2022/10/07 08:19:29;;;;;;;13.90;4.47;;;11.30;99.90;;;;;;5150112;27;20486;-79
2022/10/07 08:21:55;;;;;;;16.23;4.40;;;11.40;99.90;;;;;;5125313;27;20076;-79
2022/10/07 08:24:23;;;;;;;21.50;3.83;;;11.40;99.90;;;;;;5104674;27;20046;-78
2022/10/07 08:26:49;;;;;;;14.95;4.25;;;12.80;99.90;;;;;;5125149;27;20047;-79
2022/10/07 08:29:15;;;;;;;20.95;4.40;;;13.30;99.90;;;;;;5099394;27;20043;-78
2022/10/07 08:31:42;;;;;;;19.05;4.10;;;11.60;99.90;;;;;;5119469;27;20346;-79
2022/10/07 08:34:10;;;;;;;16.27;3.75;;;11.70;99.90;;;;;;5147264;27;20043;-79
2022/10/07 08:36:35;;;;;;;15.38;3.35;;;12.20;99.90;;;;;;5150987;27;20129;-79
2022/10/07 08:39:03;;;;;;;22.02;5.18;;;11.90;99.90;;;;;;5118231;27;20114;-80
2022/10/07 08:42:01;;;;;;;14.68;4.80;;;11.90;99.90;;;;;;5149775;27;20043;-81
2022/10/07 08:44:30;;;;;;;17.38;4.20;;;12.00;99.90;;;;;;5112740;27;20417;-80
2022/10/07 08:47:09;;;;;;;19.98;4.07;;;12.10;99.90;;;;;;5107288;27;20041;-80
2022/10/07 08:50:22;;;;;;;23.50;3.92;;;12.10;99.90;;;;;;5146219;27;20043;-79
2022/10/07 08:53:00;;;;;;;21.27;3.90;;;12.20;99.90;;;;;;5102417;27;20134;-79
2022/10/07 08:55:44;;;;;;;20.27;3.90;;;12.30;99.90;;;;;;5120225;27;20542;-80
2022/10/07 08:58:49;;;;;;;16.05;3.60;;;12.40;99.90;;;;;;5119117;27;20059;-78
2022/10/07 09:01:30;;;;;;;14.05;3.67;;;12.50;99.90;;;;;;5114135;27;20046;-79
2022/10/07 09:03:59;;;;;;;19.92;3.67;;;12.60;99.90;;;;;;5130030;27;20051;-79
2022/10/07 09:06:41;;;;;;;19.17;3.63;;;12.70;99.90;;;;;;5101927;27;20035;-80
2022/10/07 09:09:20;;;;;;;17.17;2.90;;;12.70;99.90;;;;;;5121156;27;20039;-77
2022/10/07 09:11:48;;;;;;;22.50;3.60;;;14.10;99.90;;;;;;5112202;27;20133;-79
2022/10/07 09:14:26;;;;;;;16.52;3.35;;;13.00;99.90;;;;;;5145880;27;20080;-80
2022/10/07 09:16:55;;;;;;;21.48;4.40;;;13.00;99.90;;;;;;5119048;27;20083;-79
2022/10/07 09:19:42;;;;;;;22.65;3.55;;;13.20;99.90;;;;;;5101796;27;20035;-80
2022/10/07 09:22:16;;;;;;;15.45;3.05;;;13.20;99.90;;;;;;5103706;27;20442;-80
2022/10/07 09:24:43;;;;;;;18.17;3.78;;;13.40;99.90;;;;;;5095421;27;20457;-79
2022/10/07 09:27:14;;;;;;;18.27;3.80;;;14.40;99.90;;;;;;5105452;27;20057;-80
2022/10/07 09:29:41;;;;;;;18.67;3.10;;;15.00;99.90;;;;;;5130651;27;20051;-79
2022/10/07 09:32:13;;;;;;;17.70;3.08;;;13.60;99.90;;;;;;5112470;27;20390;-79
2022/10/07 09:34:39;;;;;;;12.07;3.05;;;14.40;99.90;;;;;;5105629;27;20031;-79
2022/10/07 09:37:30;;;;;;;17.17;3.85;;;13.80;99.90;;;;;;5096896;27;20058;-79
2022/10/07 09:40:29;;;;;;;24.35;3.70;;;13.80;99.90;;;;;;5123346;27;20066;-79
2022/10/07 09:42:56;;;;;;;18.58;3.50;;;13.90;99.90;;;;;;5138663;27;20043;-79
2022/10/07 09:45:32;;;;;;;22.50;3.28;;;15.50;99.90;;;;;;5122621;27;20419;-81
2022/10/07 09:48:06;;;;;;;23.05;3.42;;;14.10;99.90;;;;;;5105264;27;20054;-78
2022/10/07 09:50:40;;;;;;;12.38;3.05;;;14.10;99.90;;;;;;5120030;27;20043;-80
2022/10/07 09:53:23;;;;;;;15.38;3.33;;;14.90;99.90;;;;;;5103185;27;20035;-80
2022/10/07 09:55:51;;;;;;;18.77;3.42;;;14.20;99.90;;;;;;5106160;28;20118;-79
2022/10/07 09:58:17;;;;;;;16.25;3.45;;;15.00;99.90;;;;;;5129941;27;20053;-78
2022/10/07 10:00:48;;;;;;;29.77;11.38;;;14.30;99.90;;;;;;5119735;28;20446;-79
2022/10/07 10:03:14;;;;;;;19.38;3.88;;;14.40;99.90;;;;;;5103358;27;20061;-79
2022/10/07 10:06:03;;;;;;;15.20;3.03;;;14.60;99.90;;;;;;5127627;27;20150;-79
2022/10/07 10:08:35;;;;;;;16.15;2.85;;;14.50;99.90;;;;;;5102551;27;20443;-79
2022/10/07 10:11:22;;;;;;;17.00;4.07;;;14.40;99.90;;;;;;5130110;27;20038;-79
2022/10/07 10:13:50;;;;;;;18.52;2.90;;;15.10;99.90;;;;;;5097307;28;20036;-80
2022/10/07 10:16:24;;;;;;;17.92;3.17;;;14.40;99.90;;;;;;5126140;27;20070;-80
2022/10/07 10:19:02;;;;;;;13.82;3.15;;;14.40;99.90;;;;;;5106535;27;20066;-80
2022/10/07 10:21:39;;;;;;;16.75;3.42;;;14.40;99.90;;;;;;5115199;28;20382;-79
2022/10/07 10:24:15;;;;;;;20.73;3.40;;;14.30;99.90;;;;;;5127053;27;20115;-79
2022/10/07 10:27:05;;;;;;;20.15;3.08;;;14.30;99.90;;;;;;5125081;27;20053;-80
2022/10/07 10:29:53;;;;;;;17.20;3.03;;;14.40;99.90;;;;;;5099977;27;20470;-79
2022/10/07 10:32:42;;;;;;;18.92;3.53;;;14.50;99.90;;;;;;5100948;27;20134;-80
2022/10/07 10:35:18;;;;;;;18.10;3.22;;;14.50;99.90;;;;;;5111578;27;20046;-76
2022/10/07 10:38:25;;;;;;;17.90;2.78;;;14.60;99.90;;;;;;5119839;27;20055;-78
2022/10/07 10:41:19;;;;;;;12.02;2.53;;;14.70;99.90;;;;;;5130183;27;20050;-78
2022/10/07 10:44:12;;;;;;;13.80;3.00;;;14.90;99.90;;;;;;5105189;27;20410;-79
2022/10/07 10:46:50;;;;;;;14.65;3.03;;;15.00;99.90;;;;;;5103298;27;20043;-79
2022/10/07 10:49:35;;;;;;;11.40;2.78;;;15.70;99.90;;;;;;5112260;27;20039;-79
2022/10/07 10:52:17;;;;;;;15.07;2.45;;;15.20;99.90;;;;;;5104182;27;20038;-78
2022/10/07 10:54:53;;;;;;;19.95;3.35;;;16.00;99.90;;;;;;5130072;27;20031;-79
2022/10/07 10:57:31;;;;;;;12.75;2.38;;;15.40;99.90;;;;;;5125073;27;20074;-78
2022/10/07 11:00:19;;;;;;;14.85;3.17;;;15.50;99.90;;;;;;5107167;27;20093;-78
2022/10/07 11:02:48;;;;;;;16.95;2.58;;;15.70;99.90;;;;;;5146843;27;20038;-80
2022/10/07 11:05:27;;;;;;;15.35;2.33;;;15.80;99.90;;;;;;5102350;27;20508;-79
2022/10/07 11:08:22;;;;;;;22.42;3.35;;;15.90;99.90;;;;;;5105426;27;20050;-79
2022/10/07 11:10:47;;;;;;;;;;;16.00;99.90;;;;;;5104358;27;20049;-80
2022/10/07 11:13:32;;;;;;;17.40;3.88;;;16.10;99.90;;;;;;5129907;27;20005;-79
2022/10/07 11:16:16;;;;;;;19.67;3.05;;;16.10;99.90;;;;;;5147857;27;20049;-78
2022/10/07 11:18:52;;;;;;;14.50;2.65;;;16.20;99.90;;;;;;5105852;27;20505;-81
2022/10/07 11:21:37;;;;;;;12.93;2.78;;;16.70;99.90;;;;;;5130429;27;20101;-79
2022/10/07 11:24:28;;;;;;;19.50;2.88;;;16.30;99.90;;;;;;5108152;27;20035;-78
2022/10/07 11:27:03;;;;;;;10.30;2.40;;;16.40;99.90;;;;;;5133394;27;20138;-79
2022/10/07 11:29:29;;;;;;;15.20;2.92;;;16.40;99.90;;;;;;5104681;27;20039;-79
2022/10/07 11:32:11;;;;;;;11.80;2.55;;;16.60;99.90;;;;;;5104938;27;20054;-79
2022/10/07 11:34:52;;;;;;;16.50;2.38;;;16.60;99.90;;;;;;5120612;27;20035;-80
2022/10/07 11:37:28;;;;;;;11.50;3.10;;;16.50;99.90;;;;;;5107888;27;20119;-79
2022/10/07 11:39:55;;;;;;;13.30;2.47;;;16.70;99.90;;;;;;5145740;27;20031;-78
2022/10/07 11:42:27;;;;;;;13.77;2.22;;;16.80;99.90;;;;;;5129546;27;20042;-79
2022/10/07 11:45:02;;;;;;;14.90;2.50;;;16.90;99.90;;;;;;5097143;27;20533;-80
2022/10/07 11:47:36;;;;;;;15.70;3.30;;;16.90;99.90;;;;;;5097218;27;20521;-79
2022/10/07 11:50:30;;;;;;;17.48;3.05;;;16.90;99.90;;;;;;5104528;27;20497;-82
2022/10/07 11:53:06;;;;;;;15.38;2.33;;;16.90;99.90;;;;;;5110626;27;20035;-79
2022/10/07 11:56:15;;;;;;;12.30;2.40;;;17.00;99.90;;;;;;5098470;27;20037;-79
2022/10/07 11:58:47;;;;;;;8.95;1.77;;;17.00;99.90;;;;;;5091666;27;20054;-79
2022/10/07 12:01:25;;;;;;;11.77;2.08;;;17.30;99.90;;;;;;5141452;27;20046;-79
2022/10/07 12:04:19;;;;;;;11.45;2.63;;;17.00;99.90;;;;;;5120694;27;20092;-78
2022/10/07 12:07:23;;;;;;;14.73;2.47;;;16.90;99.90;;;;;;5092339;27;20058;-79
2022/10/07 12:10:02;;;;;;;15.10;2.03;;;16.80;99.90;;;;;;5112017;27;20479;-78
2022/10/07 12:12:45;;;;;;;18.33;3.25;;;16.70;99.90;;;;;;5139412;27;20046;-79
2022/10/07 12:15:32;;;;;;;15.95;2.75;;;16.60;99.90;;;;;;5141983;27;20046;-79
2022/10/07 12:18:04;;;;;;;14.95;2.75;;;16.50;99.90;;;;;;5113381;27;20037;-79
2022/10/07 12:20:41;;;;;;;14.13;2.35;;;16.50;99.90;;;;;;5101593;27;20057;-78
2022/10/07 12:23:19;;;;;;;10.10;2.55;;;16.50;99.90;;;;;;5099992;27;20071;-78
2022/10/07 12:25:59;;;;;;;17.23;3.08;;;16.50;99.90;;;;;;5124835;27;20058;-78
2022/10/07 12:28:33;;;;;;;19.02;2.47;;;16.60;99.90;;;;;;5098719;27;20047;-82
2022/10/07 12:31:21;;;;;;;16.15;2.80;;;16.90;99.90;;;;;;5117224;27;20172;-80
2022/10/07 12:33:55;;;;;;;13.18;2.35;;;16.50;99.90;;;;;;5142006;27;20129;-79
2022/10/07 12:36:27;;;;;;;16.67;2.90;;;17.70;99.90;;;;;;5100439;27;20085;-80
2022/10/07 12:38:58;;;;;;;13.45;2.30;;;16.50;99.90;;;;;;5102503;27;20027;-78
2022/10/07 12:41:44;;;;;;;17.42;2.42;;;16.60;99.90;;;;;;5120450;27;20081;-78
2022/10/07 12:44:32;;;;;;;13.32;2.45;;;16.50;99.90;;;;;;5145955;27;20043;-78
2022/10/07 12:47:08;;;;;;;15.50;2.70;;;17.90;99.90;;;;;;5114507;27;20031;-77
2022/10/07 12:49:57;;;;;;;16.20;2.33;;;16.40;99.90;;;;;;5132349;27;20104;-78
2022/10/07 12:52:39;;;;;;;14.38;1.92;;;17.00;99.90;;;;;;5130842;27;20047;-79
2022/10/07 12:55:22;;;;;;;19.88;2.40;;;16.30;99.90;;;;;;5136579;27;20074;-80
2022/10/07 12:57:53;;;;;;;16.02;3.28;;;16.80;99.90;;;;;;5139575;27;20039;-80
2022/10/07 13:00:23;;;;;;;12.07;1.90;;;16.30;99.90;;;;;;5123550;27;20095;-80
2022/10/07 13:03:26;;;;;;;13.27;1.70;;;16.30;99.90;;;;;;5143272;27;20038;-79
2022/10/07 13:06:04;;;;;;;15.85;2.03;;;16.30;99.90;;;;;;5111058;27;20043;-79
2022/10/07 13:08:47;;;;;;;13.68;2.00;;;16.30;99.90;;;;;;5119892;27;20100;-79
2022/10/07 13:11:38;;;;;;;8.13;2.03;;;15.10;99.90;;;;;;5121809;27;20041;-79